Terminal Aerodrome Forecast
Issued by NWS Boise, ID

Home | Current Version | Previous Version | Text Only | Print | Product List | Glossary On
Versions: 1 2 3 4 5 6 7 8 9 10 11 12 13 14 15 16 17 18 19 20 21 22 23 24 25 26 27 28 29 30 31 32 33 34 35 36 37 38 39 40 41 42 43 44 45 46 47 48
421
FTUS45 KBOI 091120
TAFBOI
TAF
KBOI 091120Z 0912/1012 VRB04KT P6SM VCSH SCT015 BKN080
      TEMPO 0912/0916 BKN015
     FM091600 VRB05KT 2SM -SN BR OVC025
      TEMPO 0916/0919 -FZRA
     FM091900 VRB05KT 4SM -RA BR OVC015=

USA.gov is the U.S. government's official web portal to all federal, state and local government web resources and services.